Terminal Aerodrome Forecast
Issued by NWS Cleveland, OH

Home | Current Version | Previous Version | Text Only | Print | Product List | Glossary Off
Versions: 1 2 3 4 5 6 7 8 9 10 11 12 13 14

798
FTUS41 KCLE 180520
TAFYNG
TAF
KYNG 180520Z 1806/1906 VRB04KT P6SM SKC
      TEMPO 1809/1813 4SM BR=

USA.gov is the U.S. government's official web portal to all federal, state and local government web resources and services.